sensor_id;sensor_type;location;lat;lon;timestamp;P1;durP1;ratioP1;P2;durP2;ratioP2
30378;SDS011;17168;49.164;9.060;2022-10-19T00:01:51;84.43;;;10.75;;
30378;SDS011;17168;49.164;9.060;2022-10-19T00:04:23;92.90;;;12.00;;
30378;SDS011;17168;49.164;9.060;2022-10-19T00:06:55;40.95;;;8.52;;
30378;SDS011;17168;49.164;9.060;2022-10-19T00:09:28;110.63;;;10.73;;
30378;SDS011;17168;49.164;9.060;2022-10-19T00:12:00;64.25;;;9.32;;
30378;SDS011;17168;49.164;9.060;2022-10-19T00:14:32;68.88;;;8.85;;
30378;SDS011;17168;49.164;9.060;2022-10-19T00:17:04;83.45;;;9.55;;
30378;SDS011;17168;49.164;9.060;2022-10-19T00:19:36;78.30;;;10.40;;
30378;SDS011;17168;49.164;9.060;2022-10-19T00:22:08;81.95;;;10.63;;
30378;SDS011;17168;49.164;9.060;2022-10-19T00:24:45;35.67;;;9.68;;
30378;SDS011;17168;49.164;9.060;2022-10-19T00:27:17;29.48;;;11.38;;
30378;SDS011;17168;49.164;9.060;2022-10-19T00:29:49;20.60;;;10.32;;
30378;SDS011;17168;49.164;9.060;2022-10-19T00:32:21;44.67;;;10.75;;
30378;SDS011;17168;49.164;9.060;2022-10-19T00:34:53;13.90;;;9.95;;
30378;SDS011;17168;49.164;9.060;2022-10-19T00:37:24;17.95;;;10.95;;
30378;SDS011;17168;49.164;9.060;2022-10-19T00:39:58;17.10;;;10.35;;
30378;SDS011;17168;49.164;9.060;2022-10-19T00:42:30;32.00;;;12.40;;
30378;SDS011;17168;49.164;9.060;2022-10-19T00:45:04;69.43;;;12.50;;
30378;SDS011;17168;49.164;9.060;2022-10-19T00:47:39;114.32;;;13.65;;
30378;SDS011;17168;49.164;9.060;2022-10-19T00:50:12;33.25;;;10.10;;
30378;SDS011;17168;49.164;9.060;2022-10-19T00:52:45;104.85;;;12.57;;
30378;SDS011;17168;49.164;9.060;2022-10-19T00:55:18;50.28;;;11.40;;
30378;SDS011;17168;49.164;9.060;2022-10-19T00:57:50;17.80;;;11.13;;
30378;SDS011;17168;49.164;9.060;2022-10-19T01:00:22;28.30;;;11.35;;
30378;SDS011;17168;49.164;9.060;2022-10-19T01:02:54;43.78;;;11.90;;
30378;SDS011;17168;49.164;9.060;2022-10-19T01:05:27;19.92;;;9.43;;
30378;SDS011;17168;49.164;9.060;2022-10-19T01:08:00;19.83;;;9.90;;
30378;SDS011;17168;49.164;9.060;2022-10-19T01:10:34;17.67;;;10.80;;
30378;SDS011;17168;49.164;9.060;2022-10-19T01:13:19;13.50;;;9.52;;
30378;SDS011;17168;49.164;9.060;2022-10-19T01:15:59;28.27;;;10.83;;
30378;SDS011;17168;49.164;9.060;2022-10-19T01:18:38;14.50;;;10.07;;
30378;SDS011;17168;49.164;9.060;2022-10-19T01:21:22;14.77;;;9.43;;
30378;SDS011;17168;49.164;9.060;2022-10-19T01:27:23;13.82;;;9.15;;
30378;SDS011;17168;49.164;9.060;2022-10-19T01:30:08;12.32;;;9.48;;
30378;SDS011;17168;49.164;9.060;2022-10-19T01:33:03;13.98;;;8.85;;
30378;SDS011;17168;49.164;9.060;2022-10-19T01:35:44;12.68;;;9.30;;
30378;SDS011;17168;49.164;9.060;2022-10-19T01:38:24;12.02;;;9.05;;
30378;SDS011;17168;49.164;9.060;2022-10-19T01:41:08;16.10;;;10.25;;
30378;SDS011;17168;49.164;9.060;2022-10-19T01:43:45;16.25;;;10.52;;
30378;SDS011;17168;49.164;9.060;2022-10-19T01:46:26;17.13;;;10.05;;
30378;SDS011;17168;49.164;9.060;2022-10-19T01:49:01;14.45;;;10.55;;
30378;SDS011;17168;49.164;9.060;2022-10-19T01:51:39;17.50;;;11.60;;
30378;SDS011;17168;49.164;9.060;2022-10-19T01:54:14;15.45;;;11.25;;
30378;SDS011;17168;49.164;9.060;2022-10-19T01:56:48;19.85;;;13.50;;
30378;SDS011;17168;49.164;9.060;2022-10-19T01:59:22;20.80;;;12.88;;
30378;SDS011;17168;49.164;9.060;2022-10-19T02:01:55;42.50;;;14.30;;
30378;SDS011;17168;49.164;9.060;2022-10-19T02:04:28;25.55;;;14.30;;
30378;SDS011;17168;49.164;9.060;2022-10-19T02:07:01;26.13;;;14.30;;
30378;SDS011;17168;49.164;9.060;2022-10-19T02:09:34;60.20;;;15.60;;
30378;SDS011;17168;49.164;9.060;2022-10-19T02:12:07;55.63;;;15.20;;
30378;SDS011;17168;49.164;9.060;2022-10-19T02:14:41;30.17;;;13.93;;
30378;SDS011;17168;49.164;9.060;2022-10-19T02:17:18;37.70;;;14.00;;
30378;SDS011;17168;49.164;9.060;2022-10-19T02:19:54;41.42;;;15.15;;
30378;SDS011;17168;49.164;9.060;2022-10-19T02:22:27;40.22;;;15.25;;
30378;SDS011;17168;49.164;9.060;2022-10-19T02:24:59;29.95;;;14.27;;
30378;SDS011;17168;49.164;9.060;2022-10-19T02:27:31;59.05;;;14.80;;
30378;SDS011;17168;49.164;9.060;2022-10-19T02:30:03;40.65;;;14.40;;
30378;SDS011;17168;49.164;9.060;2022-10-19T02:35:10;68.97;;;14.80;;
30378;SDS011;17168;49.164;9.060;2022-10-19T02:37:42;50.65;;;13.95;;
30378;SDS011;17168;49.164;9.060;2022-10-19T02:40:15;41.33;;;14.57;;
30378;SDS011;17168;49.164;9.060;2022-10-19T02:42:47;28.02;;;14.52;;
30378;SDS011;17168;49.164;9.060;2022-10-19T02:45:22;39.10;;;14.32;;
30378;SDS011;17168;49.164;9.060;2022-10-19T02:48:01;40.05;;;13.90;;
30378;SDS011;17168;49.164;9.060;2022-10-19T02:50:35;78.60;;;15.95;;
30378;SDS011;17168;49.164;9.060;2022-10-19T02:53:07;49.90;;;14.85;;
30378;SDS011;17168;49.164;9.060;2022-10-19T02:55:39;41.42;;;15.63;;
30378;SDS011;17168;49.164;9.060;2022-10-19T02:58:12;42.92;;;15.30;;
30378;SDS011;17168;49.164;9.060;2022-10-19T03:00:43;35.63;;;15.25;;
30378;SDS011;17168;49.164;9.060;2022-10-19T03:03:17;63.28;;;15.48;;
30378;SDS011;17168;49.164;9.060;2022-10-19T03:05:48;52.25;;;14.65;;
30378;SDS011;17168;49.164;9.060;2022-10-19T03:08:20;40.67;;;15.48;;
30378;SDS011;17168;49.164;9.060;2022-10-19T03:10:52;26.90;;;15.15;;
30378;SDS011;17168;49.164;9.060;2022-10-19T03:13:24;25.52;;;15.35;;
30378;SDS011;17168;49.164;9.060;2022-10-19T03:15:56;67.28;;;16.95;;
30378;SDS011;17168;49.164;9.060;2022-10-19T03:18:29;52.85;;;16.20;;
30378;SDS011;17168;49.164;9.060;2022-10-19T03:21:01;32.85;;;16.35;;
30378;SDS011;17168;49.164;9.060;2022-10-19T03:23:34;47.90;;;16.70;;
30378;SDS011;17168;49.164;9.060;2022-10-19T03:26:06;81.20;;;17.63;;
30378;SDS011;17168;49.164;9.060;2022-10-19T03:28:42;30.90;;;16.23;;
30378;SDS011;17168;49.164;9.060;2022-10-19T03:31:14;60.22;;;17.17;;
30378;SDS011;17168;49.164;9.060;2022-10-19T03:33:48;31.92;;;16.35;;
30378;SDS011;17168;49.164;9.060;2022-10-19T03:36:21;32.72;;;15.80;;
30378;SDS011;17168;49.164;9.060;2022-10-19T03:38:55;38.75;;;16.02;;
30378;SDS011;17168;49.164;9.060;2022-10-19T03:41:30;78.85;;;15.82;;
30378;SDS011;17168;49.164;9.060;2022-10-19T03:44:04;32.38;;;16.85;;
30378;SDS011;17168;49.164;9.060;2022-10-19T03:46:36;41.50;;;17.23;;
30378;SDS011;17168;49.164;9.060;2022-10-19T03:49:10;87.75;;;18.08;;
30378;SDS011;17168;49.164;9.060;2022-10-19T03:54:14;55.83;;;16.30;;
30378;SDS011;17168;49.164;9.060;2022-10-19T03:56:46;35.10;;;15.90;;
30378;SDS011;17168;49.164;9.060;2022-10-19T03:59:18;31.33;;;16.75;;
30378;SDS011;17168;49.164;9.060;2022-10-19T04:01:50;27.02;;;14.63;;
30378;SDS011;17168;49.164;9.060;2022-10-19T04:04:23;36.28;;;15.93;;
30378;SDS011;17168;49.164;9.060;2022-10-19T04:06:55;27.05;;;14.00;;
30378;SDS011;17168;49.164;9.060;2022-10-19T04:09:27;49.35;;;16.67;;
30378;SDS011;17168;49.164;9.060;2022-10-19T04:11:58;36.72;;;14.77;;
30378;SDS011;17168;49.164;9.060;2022-10-19T04:14:30;27.80;;;14.38;;
30378;SDS011;17168;49.164;9.060;2022-10-19T04:17:15;30.33;;;13.88;;
30378;SDS011;17168;49.164;9.060;2022-10-19T04:19:49;30.70;;;14.13;;
30378;SDS011;17168;49.164;9.060;2022-10-19T04:22:20;33.72;;;12.65;;
30378;SDS011;17168;49.164;9.060;2022-10-19T04:24:52;26.42;;;12.52;;
30378;SDS011;17168;49.164;9.060;2022-10-19T04:27:24;36.90;;;13.73;;
30378;SDS011;17168;49.164;9.060;2022-10-19T04:29:56;28.45;;;13.50;;
30378;SDS011;17168;49.164;9.060;2022-10-19T04:32:28;24.98;;;13.30;;
30378;SDS011;17168;49.164;9.060;2022-10-19T04:35:01;20.52;;;12.73;;
30378;SDS011;17168;49.164;9.060;2022-10-19T04:37:33;19.98;;;11.85;;
30378;SDS011;17168;49.164;9.060;2022-10-19T04:40:06;24.63;;;13.10;;
30378;SDS011;17168;49.164;9.060;2022-10-19T04:42:45;22.80;;;13.27;;
30378;SDS011;17168;49.164;9.060;2022-10-19T04:45:16;21.27;;;12.48;;
30378;SDS011;17168;49.164;9.060;2022-10-19T04:47:48;21.90;;;12.23;;
30378;SDS011;17168;49.164;9.060;2022-10-19T04:50:22;21.77;;;11.82;;
30378;SDS011;17168;49.164;9.060;2022-10-19T04:55:25;20.23;;;11.60;;
30378;SDS011;17168;49.164;9.060;2022-10-19T04:57:57;21.83;;;12.25;;
30378;SDS011;17168;49.164;9.060;2022-10-19T05:00:29;20.60;;;11.65;;
30378;SDS011;17168;49.164;9.060;2022-10-19T05:03:01;22.85;;;13.00;;
30378;SDS011;17168;49.164;9.060;2022-10-19T05:05:34;21.15;;;12.25;;
30378;SDS011;17168;49.164;9.060;2022-10-19T05:10:38;23.55;;;12.80;;
30378;SDS011;17168;49.164;9.060;2022-10-19T05:13:13;19.98;;;11.82;;
30378;SDS011;17168;49.164;9.060;2022-10-19T05:15:53;21.13;;;11.10;;
30378;SDS011;17168;49.164;9.060;2022-10-19T05:18:26;23.25;;;12.88;;
30378;SDS011;17168;49.164;9.060;2022-10-19T05:21:00;19.90;;;11.88;;
30378;SDS011;17168;49.164;9.060;2022-10-19T05:23:33;20.08;;;12.55;;
30378;SDS011;17168;49.164;9.060;2022-10-19T05:26:06;20.75;;;12.38;;
30378;SDS011;17168;49.164;9.060;2022-10-19T05:28:39;19.55;;;12.15;;
30378;SDS011;17168;49.164;9.060;2022-10-19T05:31:12;21.60;;;11.85;;
30378;SDS011;17168;49.164;9.060;2022-10-19T05:33:45;21.48;;;11.95;;
30378;SDS011;17168;49.164;9.060;2022-10-19T05:36:19;18.75;;;11.40;;
30378;SDS011;17168;49.164;9.060;2022-10-19T05:38:55;15.02;;;10.55;;
30378;SDS011;17168;49.164;9.060;2022-10-19T05:41:27;19.23;;;12.53;;
30378;SDS011;17168;49.164;9.060;2022-10-19T05:44:00;17.92;;;11.05;;
30378;SDS011;17168;49.164;9.060;2022-10-19T05:46:32;20.40;;;11.30;;
30378;SDS011;17168;49.164;9.060;2022-10-19T05:49:04;17.48;;;10.10;;
30378;SDS011;17168;49.164;9.060;2022-10-19T05:51:38;18.17;;;11.05;;
30378;SDS011;17168;49.164;9.060;2022-10-19T05:54:10;20.65;;;12.38;;
30378;SDS011;17168;49.164;9.060;2022-10-19T05:56:43;17.15;;;11.45;;
30378;SDS011;17168;49.164;9.060;2022-10-19T05:59:16;23.98;;;11.60;;
30378;SDS011;17168;49.164;9.060;2022-10-19T06:01:49;25.95;;;13.30;;
30378;SDS011;17168;49.164;9.060;2022-10-19T06:04:21;19.00;;;12.40;;
30378;SDS011;17168;49.164;9.060;2022-10-19T06:06:54;19.02;;;11.90;;
30378;SDS011;17168;49.164;9.060;2022-10-19T06:09:26;23.40;;;12.15;;
30378;SDS011;17168;49.164;9.060;2022-10-19T06:11:58;17.02;;;11.20;;
30378;SDS011;17168;49.164;9.060;2022-10-19T06:14:30;16.50;;;10.23;;
30378;SDS011;17168;49.164;9.060;2022-10-19T06:17:02;17.65;;;11.50;;
30378;SDS011;17168;49.164;9.060;2022-10-19T06:19:34;16.57;;;11.03;;
30378;SDS011;17168;49.164;9.060;2022-10-19T06:22:08;14.18;;;9.73;;
30378;SDS011;17168;49.164;9.060;2022-10-19T06:24:39;18.40;;;11.52;;
30378;SDS011;17168;49.164;9.060;2022-10-19T06:27:11;18.75;;;11.70;;
30378;SDS011;17168;49.164;9.060;2022-10-19T06:29:43;16.55;;;11.07;;
30378;SDS011;17168;49.164;9.060;2022-10-19T06:32:15;14.57;;;10.55;;
30378;SDS011;17168;49.164;9.060;2022-10-19T06:34:47;16.88;;;10.77;;
30378;SDS011;17168;49.164;9.060;2022-10-19T06:37:22;16.05;;;11.07;;
30378;SDS011;17168;49.164;9.060;2022-10-19T06:39:54;14.40;;;10.32;;
30378;SDS011;17168;49.164;9.060;2022-10-19T06:42:26;16.33;;;10.45;;
30378;SDS011;17168;49.164;9.060;2022-10-19T06:44:57;14.38;;;10.38;;
30378;SDS011;17168;49.164;9.060;2022-10-19T06:47:29;14.18;;;9.35;;
30378;SDS011;17168;49.164;9.060;2022-10-19T06:50:04;12.95;;;9.50;;
30378;SDS011;17168;49.164;9.060;2022-10-19T06:52:38;14.07;;;9.23;;
30378;SDS011;17168;49.164;9.060;2022-10-19T06:55:11;14.93;;;9.93;;
30378;SDS011;17168;49.164;9.060;2022-10-19T06:57:43;13.40;;;9.50;;
30378;SDS011;17168;49.164;9.060;2022-10-19T07:00:15;25.73;;;11.18;;
30378;SDS011;17168;49.164;9.060;2022-10-19T07:02:47;17.35;;;10.50;;
30378;SDS011;17168;49.164;9.060;2022-10-19T07:05:19;24.83;;;11.07;;
30378;SDS011;17168;49.164;9.060;2022-10-19T07:07:52;23.85;;;11.32;;
30378;SDS011;17168;49.164;9.060;2022-10-19T07:10:24;28.15;;;10.88;;
30378;SDS011;17168;49.164;9.060;2022-10-19T07:12:56;15.70;;;10.90;;
30378;SDS011;17168;49.164;9.060;2022-10-19T07:15:28;18.48;;;11.45;;
30378;SDS011;17168;49.164;9.060;2022-10-19T07:18:00;16.42;;;10.50;;
30378;SDS011;17168;49.164;9.060;2022-10-19T07:20:32;15.88;;;10.15;;
30378;SDS011;17168;49.164;9.060;2022-10-19T07:23:05;17.02;;;10.32;;
30378;SDS011;17168;49.164;9.060;2022-10-19T07:28:09;15.63;;;10.02;;
30378;SDS011;17168;49.164;9.060;2022-10-19T07:30:40;14.73;;;9.93;;
30378;SDS011;17168;49.164;9.060;2022-10-19T07:33:12;14.05;;;10.07;;
30378;SDS011;17168;49.164;9.060;2022-10-19T07:35:44;14.02;;;10.02;;
30378;SDS011;17168;49.164;9.060;2022-10-19T07:38:17;13.68;;;10.02;;
30378;SDS011;17168;49.164;9.060;2022-10-19T07:40:49;14.38;;;10.73;;
30378;SDS011;17168;49.164;9.060;2022-10-19T07:43:21;18.55;;;11.65;;
30378;SDS011;17168;49.164;9.060;2022-10-19T07:45:56;17.90;;;11.35;;
30378;SDS011;17168;49.164;9.060;2022-10-19T07:48:28;15.88;;;11.57;;
30378;SDS011;17168;49.164;9.060;2022-10-19T07:51:00;16.17;;;11.82;;
30378;SDS011;17168;49.164;9.060;2022-10-19T07:53:35;15.32;;;10.90;;
30378;SDS011;17168;49.164;9.060;2022-10-19T07:56:09;14.77;;;10.95;;
30378;SDS011;17168;49.164;9.060;2022-10-19T07:58:42;14.32;;;10.77;;
30378;SDS011;17168;49.164;9.060;2022-10-19T08:01:15;13.68;;;10.57;;
30378;SDS011;17168;49.164;9.060;2022-10-19T08:03:50;14.70;;;10.30;;
30378;SDS011;17168;49.164;9.060;2022-10-19T08:06:42;14.35;;;10.93;;
30378;SDS011;17168;49.164;9.060;2022-10-19T08:09:15;14.55;;;10.30;;
30378;SDS011;17168;49.164;9.060;2022-10-19T08:12:08;13.75;;;10.02;;
30378;SDS011;17168;49.164;9.060;2022-10-19T08:14:45;13.25;;;10.27;;
30378;SDS011;17168;49.164;9.060;2022-10-19T08:17:18;14.35;;;10.32;;
30378;SDS011;17168;49.164;9.060;2022-10-19T08:19:50;11.60;;;9.27;;
30378;SDS011;17168;49.164;9.060;2022-10-19T08:22:21;12.07;;;9.15;;
30378;SDS011;17168;49.164;9.060;2022-10-19T08:24:55;12.35;;;9.73;;
30378;SDS011;17168;49.164;9.060;2022-10-19T08:27:26;14.23;;;10.07;;
30378;SDS011;17168;49.164;9.060;2022-10-19T08:29:59;14.33;;;10.20;;
30378;SDS011;17168;49.164;9.060;2022-10-19T08:32:31;12.43;;;9.48;;
30378;SDS011;17168;49.164;9.060;2022-10-19T08:35:03;11.05;;;8.77;;
30378;SDS011;17168;49.164;9.060;2022-10-19T08:37:41;16.13;;;9.10;;
30378;SDS011;17168;49.164;9.060;2022-10-19T08:40:18;11.15;;;8.48;;
30378;SDS011;17168;49.164;9.060;2022-10-19T08:42:55;15.90;;;10.43;;
30378;SDS011;17168;49.164;9.060;2022-10-19T08:45:36;15.68;;;10.88;;
30378;SDS011;17168;49.164;9.060;2022-10-19T08:48:21;12.68;;;9.82;;
30378;SDS011;17168;49.164;9.060;2022-10-19T08:50:56;11.93;;;9.05;;
30378;SDS011;17168;49.164;9.060;2022-10-19T08:53:31;14.18;;;9.25;;
30378;SDS011;17168;49.164;9.060;2022-10-19T08:56:17;10.70;;;8.27;;
30378;SDS011;17168;49.164;9.060;2022-10-19T08:59:20;11.98;;;8.85;;
30378;SDS011;17168;49.164;9.060;2022-10-19T09:02:03;10.88;;;8.40;;
30378;SDS011;17168;49.164;9.060;2022-10-19T09:04:44;13.57;;;8.50;;
30378;SDS011;17168;49.164;9.060;2022-10-19T09:07:21;11.52;;;8.65;;
30378;SDS011;17168;49.164;9.060;2022-10-19T09:09:56;11.73;;;8.23;;
30378;SDS011;17168;49.164;9.060;2022-10-19T09:12:36;10.75;;;8.55;;
30378;SDS011;17168;49.164;9.060;2022-10-19T09:15:17;10.52;;;8.52;;
30378;SDS011;17168;49.164;9.060;2022-10-19T09:17:51;11.63;;;8.95;;
30378;SDS011;17168;49.164;9.060;2022-10-19T09:20:24;9.70;;;8.10;;
30378;SDS011;17168;49.164;9.060;2022-10-19T09:23:02;9.35;;;7.32;;
30378;SDS011;17168;49.164;9.060;2022-10-19T09:25:42;10.05;;;7.65;;
30378;SDS011;17168;49.164;9.060;2022-10-19T09:28:18;8.82;;;7.70;;
30378;SDS011;17168;49.164;9.060;2022-10-19T09:31:11;9.60;;;7.68;;
30378;SDS011;17168;49.164;9.060;2022-10-19T09:33:49;8.95;;;6.80;;
30378;SDS011;17168;49.164;9.060;2022-10-19T09:36:27;9.38;;;7.45;;
30378;SDS011;17168;49.164;9.060;2022-10-19T09:39:21;12.43;;;7.07;;
30378;SDS011;17168;49.164;9.060;2022-10-19T09:41:59;9.98;;;7.88;;
30378;SDS011;17168;49.164;9.060;2022-10-19T09:44:39;11.30;;;7.68;;
30378;SDS011;17168;49.164;9.060;2022-10-19T09:50:04;11.77;;;7.43;;
30378;SDS011;17168;49.164;9.060;2022-10-19T09:52:45;10.05;;;7.97;;
30378;SDS011;17168;49.164;9.060;2022-10-19T09:55:27;10.10;;;8.00;;
30378;SDS011;17168;49.164;9.060;2022-10-19T09:58:09;12.60;;;7.65;;
30378;SDS011;17168;49.164;9.060;2022-10-19T10:00:49;9.65;;;7.60;;
30378;SDS011;17168;49.164;9.060;2022-10-19T10:03:23;8.95;;;7.45;;
30378;SDS011;17168;49.164;9.060;2022-10-19T10:05:57;10.57;;;7.10;;
30378;SDS011;17168;49.164;9.060;2022-10-19T10:08:32;8.10;;;7.03;;
30378;SDS011;17168;49.164;9.060;2022-10-19T10:11:10;9.85;;;6.97;;
30378;SDS011;17168;49.164;9.060;2022-10-19T10:13:47;9.88;;;6.40;;
30378;SDS011;17168;49.164;9.060;2022-10-19T10:16:22;8.02;;;5.93;;
30378;SDS011;17168;49.164;9.060;2022-10-19T10:18:59;8.43;;;6.03;;
30378;SDS011;17168;49.164;9.060;2022-10-19T10:21:44;9.18;;;6.10;;
30378;SDS011;17168;49.164;9.060;2022-10-19T10:24:19;8.07;;;5.32;;
30378;SDS011;17168;49.164;9.060;2022-10-19T10:26:53;8.02;;;5.35;;
30378;SDS011;17168;49.164;9.060;2022-10-19T10:29:27;7.13;;;4.97;;
30378;SDS011;17168;49.164;9.060;2022-10-19T10:32:04;6.43;;;5.22;;
30378;SDS011;17168;49.164;9.060;2022-10-19T10:34:39;7.10;;;5.25;;
30378;SDS011;17168;49.164;9.060;2022-10-19T10:37:24;6.80;;;5.22;;
30378;SDS011;17168;49.164;9.060;2022-10-19T10:40:00;7.20;;;4.55;;
30378;SDS011;17168;49.164;9.060;2022-10-19T10:42:35;5.25;;;4.65;;
30378;SDS011;17168;49.164;9.060;2022-10-19T10:45:14;6.93;;;4.38;;
30378;SDS011;17168;49.164;9.060;2022-10-19T10:47:50;6.25;;;4.35;;
30378;SDS011;17168;49.164;9.060;2022-10-19T10:50:23;5.47;;;4.72;;
30378;SDS011;17168;49.164;9.060;2022-10-19T10:52:57;6.05;;;4.18;;
30378;SDS011;17168;49.164;9.060;2022-10-19T10:55:30;6.82;;;5.43;;
30378;SDS011;17168;49.164;9.060;2022-10-19T10:58:05;8.32;;;6.13;;
30378;SDS011;17168;49.164;9.060;2022-10-19T11:00:45;9.15;;;6.60;;
30378;SDS011;17168;49.164;9.060;2022-10-19T11:03:21;7.90;;;5.97;;
30378;SDS011;17168;49.164;9.060;2022-10-19T11:05:57;9.95;;;6.80;;
30378;SDS011;17168;49.164;9.060;2022-10-19T11:08:31;7.75;;;6.05;;
30378;SDS011;17168;49.164;9.060;2022-10-19T11:11:10;6.65;;;5.90;;
30378;SDS011;17168;49.164;9.060;2022-10-19T11:13:48;9.23;;;6.10;;
30378;SDS011;17168;49.164;9.060;2022-10-19T11:16:24;6.40;;;5.75;;
30378;SDS011;17168;49.164;9.060;2022-10-19T11:19:04;6.65;;;5.38;;
30378;SDS011;17168;49.164;9.060;2022-10-19T11:21:43;6.57;;;5.63;;
30378;SDS011;17168;49.164;9.060;2022-10-19T11:24:24;12.27;;;5.90;;
30378;SDS011;17168;49.164;9.060;2022-10-19T11:29:49;7.05;;;5.75;;
30378;SDS011;17168;49.164;9.060;2022-10-19T11:32:33;5.68;;;5.18;;
30378;SDS011;17168;49.164;9.060;2022-10-19T11:35:16;5.55;;;4.88;;
30378;SDS011;17168;49.164;9.060;2022-10-19T11:38:08;6.40;;;5.40;;
30378;SDS011;17168;49.164;9.060;2022-10-19T11:41:03;6.18;;;5.05;;
30378;SDS011;17168;49.164;9.060;2022-10-19T11:43:56;6.70;;;4.95;;
30378;SDS011;17168;49.164;9.060;2022-10-19T11:46:43;6.50;;;5.35;;
30378;SDS011;17168;49.164;9.060;2022-10-19T11:49:28;5.35;;;4.85;;
30378;SDS011;17168;49.164;9.060;2022-10-19T11:52:11;6.20;;;4.85;;
30378;SDS011;17168;49.164;9.060;2022-10-19T11:54:51;6.60;;;5.05;;
30378;SDS011;17168;49.164;9.060;2022-10-19T11:57:31;7.80;;;5.07;;
30378;SDS011;17168;49.164;9.060;2022-10-19T12:00:14;5.55;;;4.90;;
30378;SDS011;17168;49.164;9.060;2022-10-19T12:06:11;5.95;;;5.32;;
30378;SDS011;17168;49.164;9.060;2022-10-19T12:08:56;6.38;;;5.28;;
30378;SDS011;17168;49.164;9.060;2022-10-19T12:11:44;5.80;;;4.80;;
30378;SDS011;17168;49.164;9.060;2022-10-19T12:14:26;7.47;;;4.47;;
30378;SDS011;17168;49.164;9.060;2022-10-19T12:17:04;5.13;;;4.03;;
30378;SDS011;17168;49.164;9.060;2022-10-19T12:19:39;4.82;;;4.00;;
30378;SDS011;17168;49.164;9.060;2022-10-19T12:22:18;7.45;;;4.13;;
30378;SDS011;17168;49.164;9.060;2022-10-19T12:24:56;4.10;;;3.70;;
30378;SDS011;17168;49.164;9.060;2022-10-19T12:27:31;4.68;;;3.80;;
30378;SDS011;17168;49.164;9.060;2022-10-19T12:30:07;4.18;;;3.78;;
30378;SDS011;17168;49.164;9.060;2022-10-19T12:32:46;5.35;;;4.47;;
30378;SDS011;17168;49.164;9.060;2022-10-19T12:35:43;4.95;;;4.35;;
30378;SDS011;17168;49.164;9.060;2022-10-19T12:38:32;4.70;;;4.07;;
30378;SDS011;17168;49.164;9.060;2022-10-19T12:41:19;5.00;;;4.35;;
30378;SDS011;17168;49.164;9.060;2022-10-19T12:44:03;3.70;;;3.40;;
30378;SDS011;17168;49.164;9.060;2022-10-19T12:46:45;4.93;;;4.20;;
30378;SDS011;17168;49.164;9.060;2022-10-19T12:49:33;4.45;;;4.05;;
30378;SDS011;17168;49.164;9.060;2022-10-19T12:52:08;4.75;;;4.20;;
30378;SDS011;17168;49.164;9.060;2022-10-19T12:54:43;4.53;;;3.45;;
30378;SDS011;17168;49.164;9.060;2022-10-19T12:57:25;4.63;;;4.00;;
30378;SDS011;17168;49.164;9.060;2022-10-19T12:59:59;4.18;;;3.63;;
30378;SDS011;17168;49.164;9.060;2022-10-19T13:02:34;5.07;;;3.65;;
30378;SDS011;17168;49.164;9.060;2022-10-19T13:05:17;4.30;;;3.90;;
30378;SDS011;17168;49.164;9.060;2022-10-19T13:07:50;4.78;;;3.33;;
30378;SDS011;17168;49.164;9.060;2022-10-19T13:10:23;4.30;;;3.33;;
30378;SDS011;17168;49.164;9.060;2022-10-19T13:12:58;4.20;;;3.60;;
30378;SDS011;17168;49.164;9.060;2022-10-19T13:21:47;7.43;;;3.92;;
30378;SDS011;17168;49.164;9.060;2022-10-19T14:01:07;5.68;;;3.53;;
30378;SDS011;17168;49.164;9.060;2022-10-19T14:04:55;4.03;;;3.55;;
30378;SDS011;17168;49.164;9.060;2022-10-19T14:08:46;4.15;;;3.50;;
30378;SDS011;17168;49.164;9.060;2022-10-19T14:11:39;3.38;;;2.80;;
30378;SDS011;17168;49.164;9.060;2022-10-19T14:16:46;3.33;;;3.03;;
30378;SDS011;17168;49.164;9.060;2022-10-19T14:19:23;3.40;;;3.10;;
30378;SDS011;17168;49.164;9.060;2022-10-19T14:21:58;3.75;;;3.05;;
30378;SDS011;17168;49.164;9.060;2022-10-19T14:24:33;4.05;;;3.05;;
30378;SDS011;17168;49.164;9.060;2022-10-19T14:27:06;5.43;;;3.17;;
30378;SDS011;17168;49.164;9.060;2022-10-19T14:29:42;3.63;;;3.20;;
30378;SDS011;17168;49.164;9.060;2022-10-19T14:32:15;3.22;;;2.90;;
30378;SDS011;17168;49.164;9.060;2022-10-19T14:34:49;7.25;;;3.20;;
30378;SDS011;17168;49.164;9.060;2022-10-19T14:37:22;5.03;;;3.20;;
30378;SDS011;17168;49.164;9.060;2022-10-19T14:39:58;5.47;;;2.83;;
30378;SDS011;17168;49.164;9.060;2022-10-19T14:42:38;5.13;;;2.70;;
30378;SDS011;17168;49.164;9.060;2022-10-19T14:45:13;3.58;;;3.00;;
30378;SDS011;17168;49.164;9.060;2022-10-19T14:47:50;6.30;;;3.40;;
30378;SDS011;17168;49.164;9.060;2022-10-19T14:50:25;3.85;;;3.20;;
30378;SDS011;17168;49.164;9.060;2022-10-19T14:53:04;3.72;;;3.30;;
30378;SDS011;17168;49.164;9.060;2022-10-19T14:55:56;4.72;;;3.50;;
30378;SDS011;17168;49.164;9.060;2022-10-19T14:58:35;3.97;;;3.40;;
30378;SDS011;17168;49.164;9.060;2022-10-19T15:01:10;4.53;;;3.72;;
30378;SDS011;17168;49.164;9.060;2022-10-19T15:03:42;4.45;;;3.97;;
30378;SDS011;17168;49.164;9.060;2022-10-19T15:06:17;6.50;;;4.30;;
30378;SDS011;17168;49.164;9.060;2022-10-19T15:08:51;4.30;;;3.90;;
30378;SDS011;17168;49.164;9.060;2022-10-19T15:11:27;6.25;;;4.00;;
30378;SDS011;17168;49.164;9.060;2022-10-19T15:14:01;4.90;;;3.92;;
30378;SDS011;17168;49.164;9.060;2022-10-19T15:16:40;6.65;;;4.50;;
30378;SDS011;17168;49.164;9.060;2022-10-19T15:19:15;4.78;;;3.60;;
30378;SDS011;17168;49.164;9.060;2022-10-19T15:24:36;6.20;;;4.60;;
30378;SDS011;17168;49.164;9.060;2022-10-19T15:27:16;4.63;;;4.00;;
30378;SDS011;17168;49.164;9.060;2022-10-19T15:29:53;6.32;;;4.30;;
30378;SDS011;17168;49.164;9.060;2022-10-19T15:32:29;5.53;;;4.25;;
30378;SDS011;17168;49.164;9.060;2022-10-19T15:35:09;6.38;;;4.43;;
30378;SDS011;17168;49.164;9.060;2022-10-19T15:37:42;5.45;;;4.20;;
30378;SDS011;17168;49.164;9.060;2022-10-19T15:40:17;4.90;;;4.40;;
30378;SDS011;17168;49.164;9.060;2022-10-19T15:42:54;5.03;;;4.53;;
30378;SDS011;17168;49.164;9.060;2022-10-19T15:48:14;4.65;;;3.95;;
30378;SDS011;17168;49.164;9.060;2022-10-19T15:50:54;4.38;;;3.97;;
30378;SDS011;17168;49.164;9.060;2022-10-19T15:53:27;4.18;;;3.78;;
30378;SDS011;17168;49.164;9.060;2022-10-19T15:55:58;5.32;;;3.67;;
30378;SDS011;17168;49.164;9.060;2022-10-19T15:58:32;4.35;;;3.95;;
30378;SDS011;17168;49.164;9.060;2022-10-19T16:01:04;5.05;;;4.45;;
30378;SDS011;17168;49.164;9.060;2022-10-19T16:03:41;5.07;;;4.10;;
30378;SDS011;17168;49.164;9.060;2022-10-19T16:06:13;6.00;;;4.40;;
30378;SDS011;17168;49.164;9.060;2022-10-19T16:08:46;5.28;;;4.10;;
30378;SDS011;17168;49.164;9.060;2022-10-19T16:11:19;6.07;;;4.50;;
30378;SDS011;17168;49.164;9.060;2022-10-19T16:16:25;12.53;;;6.87;;
30378;SDS011;17168;49.164;9.060;2022-10-19T16:18:59;17.00;;;8.18;;
30378;SDS011;17168;49.164;9.060;2022-10-19T16:21:32;8.15;;;4.72;;
30378;SDS011;17168;49.164;9.060;2022-10-19T16:24:05;5.85;;;4.90;;
30378;SDS011;17168;49.164;9.060;2022-10-19T16:26:37;6.63;;;5.00;;
30378;SDS011;17168;49.164;9.060;2022-10-19T16:29:11;8.00;;;5.18;;
30378;SDS011;17168;49.164;9.060;2022-10-19T16:31:43;5.75;;;5.15;;
30378;SDS011;17168;49.164;9.060;2022-10-19T16:34:14;6.25;;;5.32;;
30378;SDS011;17168;49.164;9.060;2022-10-19T16:36:46;6.82;;;5.82;;
30378;SDS011;17168;49.164;9.060;2022-10-19T16:39:18;10.18;;;6.85;;
30378;SDS011;17168;49.164;9.060;2022-10-19T16:41:50;9.10;;;5.90;;
30378;SDS011;17168;49.164;9.060;2022-10-19T16:44:23;6.13;;;5.53;;